sensor_id;sensor_type;location;lat;lon;timestamp;temperature;humidity
16271;DHT22;8243;49.048;8.396;2022-07-23T00:00:17;24.00;62.50
16271;DHT22;8243;49.048;8.396;2022-07-23T00:02:44;24.10;60.80
16271;DHT22;8243;49.048;8.396;2022-07-23T00:05:10;24.10;59.80
16271;DHT22;8243;49.048;8.396;2022-07-23T00:07:35;24.10;58.50
16271;DHT22;8243;49.048;8.396;2022-07-23T00:10:02;24.10;57.50
16271;DHT22;8243;49.048;8.396;2022-07-23T00:12:28;24.20;56.20
16271;DHT22;8243;49.048;8.396;2022-07-23T00:14:53;24.20;55.50
16271;DHT22;8243;49.048;8.396;2022-07-23T00:17:19;24.20;54.80
16271;DHT22;8243;49.048;8.396;2022-07-23T00:19:44;24.20;53.90
16271;DHT22;8243;49.048;8.396;2022-07-23T00:22:10;24.30;53.50
16271;DHT22;8243;49.048;8.396;2022-07-23T00:24:35;24.20;53.30
16271;DHT22;8243;49.048;8.396;2022-07-23T00:27:01;24.20;53.20
16271;DHT22;8243;49.048;8.396;2022-07-23T00:29:27;24.20;53.20
16271;DHT22;8243;49.048;8.396;2022-07-23T00:31:52;24.10;52.10
16271;DHT22;8243;49.048;8.396;2022-07-23T00:34:18;24.20;51.90
16271;DHT22;8243;49.048;8.396;2022-07-23T00:36:43;24.10;51.20
16271;DHT22;8243;49.048;8.396;2022-07-23T00:39:09;24.00;51.10
16271;DHT22;8243;49.048;8.396;2022-07-23T00:41:34;24.00;51.40
16271;DHT22;8243;49.048;8.396;2022-07-23T00:44:22;24.00;51.30
16271;DHT22;8243;49.048;8.396;2022-07-23T00:46:51;24.00;51.10
16271;DHT22;8243;49.048;8.396;2022-07-23T00:49:20;24.00;50.80
16271;DHT22;8243;49.048;8.396;2022-07-23T00:51:46;24.00;50.30
16271;DHT22;8243;49.048;8.396;2022-07-23T00:54:11;24.00;50.30
16271;DHT22;8243;49.048;8.396;2022-07-23T00:56:37;23.90;49.80
16271;DHT22;8243;49.048;8.396;2022-07-23T00:59:03;23.90;49.70
16271;DHT22;8243;49.048;8.396;2022-07-23T01:01:29;23.90;50.20
16271;DHT22;8243;49.048;8.396;2022-07-23T01:03:54;23.80;50.10
16271;DHT22;8243;49.048;8.396;2022-07-23T01:06:20;23.80;50.50
16271;DHT22;8243;49.048;8.396;2022-07-23T01:08:45;23.70;50.80
16271;DHT22;8243;49.048;8.396;2022-07-23T01:11:11;23.70;51.00
16271;DHT22;8243;49.048;8.396;2022-07-23T01:13:45;23.60;51.70
16271;DHT22;8243;49.048;8.396;2022-07-23T01:16:10;23.60;51.90
16271;DHT22;8243;49.048;8.396;2022-07-23T01:18:36;23.50;52.20
16271;DHT22;8243;49.048;8.396;2022-07-23T01:21:02;23.50;52.40
16271;DHT22;8243;49.048;8.396;2022-07-23T01:23:27;23.50;52.90
16271;DHT22;8243;49.048;8.396;2022-07-23T01:25:54;23.40;53.30
16271;DHT22;8243;49.048;8.396;2022-07-23T01:28:20;23.40;53.90
16271;DHT22;8243;49.048;8.396;2022-07-23T01:30:46;23.30;54.00
16271;DHT22;8243;49.048;8.396;2022-07-23T01:33:12;23.30;54.70
16271;DHT22;8243;49.048;8.396;2022-07-23T01:35:37;23.20;55.20
16271;DHT22;8243;49.048;8.396;2022-07-23T01:38:03;23.10;55.90
16271;DHT22;8243;49.048;8.396;2022-07-23T01:40:29;23.10;55.70
16271;DHT22;8243;49.048;8.396;2022-07-23T01:46:16;22.90;55.80
16271;DHT22;8243;49.048;8.396;2022-07-23T01:48:42;22.90;57.20
16271;DHT22;8243;49.048;8.396;2022-07-23T01:51:07;22.80;57.70
16271;DHT22;8243;49.048;8.396;2022-07-23T01:53:33;22.70;58.40
16271;DHT22;8243;49.048;8.396;2022-07-23T01:56:00;22.60;59.30
16271;DHT22;8243;49.048;8.396;2022-07-23T01:58:27;22.60;59.30
16271;DHT22;8243;49.048;8.396;2022-07-23T02:00:53;22.50;58.40
16271;DHT22;8243;49.048;8.396;2022-07-23T02:03:19;22.50;58.10
16271;DHT22;8243;49.048;8.396;2022-07-23T02:05:45;22.40;58.10
16271;DHT22;8243;49.048;8.396;2022-07-23T02:08:11;22.40;57.90
16271;DHT22;8243;49.048;8.396;2022-07-23T02:10:39;22.40;57.90
16271;DHT22;8243;49.048;8.396;2022-07-23T02:13:05;22.50;57.60
16271;DHT22;8243;49.048;8.396;2022-07-23T02:15:30;22.60;57.00
16271;DHT22;8243;49.048;8.396;2022-07-23T02:17:56;22.60;56.80
16271;DHT22;8243;49.048;8.396;2022-07-23T02:20:22;22.60;56.90
16271;DHT22;8243;49.048;8.396;2022-07-23T02:22:47;22.40;59.70
16271;DHT22;8243;49.048;8.396;2022-07-23T02:25:13;22.30;61.60
16271;DHT22;8243;49.048;8.396;2022-07-23T02:27:39;22.20;62.40
16271;DHT22;8243;49.048;8.396;2022-07-23T02:30:05;22.10;64.40
16271;DHT22;8243;49.048;8.396;2022-07-23T02:32:30;22.00;69.00
16271;DHT22;8243;49.048;8.396;2022-07-23T02:34:56;21.80;75.90
16271;DHT22;8243;49.048;8.396;2022-07-23T02:37:22;21.70;75.80
16271;DHT22;8243;49.048;8.396;2022-07-23T02:39:47;21.60;76.10
16271;DHT22;8243;49.048;8.396;2022-07-23T02:42:14;21.50;76.00
16271;DHT22;8243;49.048;8.396;2022-07-23T02:44:40;21.40;77.00
16271;DHT22;8243;49.048;8.396;2022-07-23T02:47:06;21.30;82.90
16271;DHT22;8243;49.048;8.396;2022-07-23T02:49:31;21.20;85.50
16271;DHT22;8243;49.048;8.396;2022-07-23T02:51:57;21.20;90.80
16271;DHT22;8243;49.048;8.396;2022-07-23T02:54:22;21.20;91.50
16271;DHT22;8243;49.048;8.396;2022-07-23T02:56:48;21.20;91.50
16271;DHT22;8243;49.048;8.396;2022-07-23T02:59:16;21.30;90.40
16271;DHT22;8243;49.048;8.396;2022-07-23T03:01:41;21.30;90.10
16271;DHT22;8243;49.048;8.396;2022-07-23T03:04:07;21.30;90.10
16271;DHT22;8243;49.048;8.396;2022-07-23T03:06:32;21.40;89.60
16271;DHT22;8243;49.048;8.396;2022-07-23T03:08:58;21.40;87.10
16271;DHT22;8243;49.048;8.396;2022-07-23T03:11:23;21.50;85.50
16271;DHT22;8243;49.048;8.396;2022-07-23T03:13:49;21.50;86.40
16271;DHT22;8243;49.048;8.396;2022-07-23T03:16:14;21.50;84.70
16271;DHT22;8243;49.048;8.396;2022-07-23T03:18:40;21.60;82.80
16271;DHT22;8243;49.048;8.396;2022-07-23T03:21:06;21.60;81.60
16271;DHT22;8243;49.048;8.396;2022-07-23T03:23:32;21.60;82.30
16271;DHT22;8243;49.048;8.396;2022-07-23T03:25:57;21.60;80.90
16271;DHT22;8243;49.048;8.396;2022-07-23T03:28:23;21.60;77.20
16271;DHT22;8243;49.048;8.396;2022-07-23T03:30:48;21.70;70.40
16271;DHT22;8243;49.048;8.396;2022-07-23T03:33:15;21.70;68.10
16271;DHT22;8243;49.048;8.396;2022-07-23T03:35:42;21.70;65.20
16271;DHT22;8243;49.048;8.396;2022-07-23T03:38:08;21.60;60.80
16271;DHT22;8243;49.048;8.396;2022-07-23T03:40:34;21.60;59.30
16271;DHT22;8243;49.048;8.396;2022-07-23T03:42:59;21.60;59.10
16271;DHT22;8243;49.048;8.396;2022-07-23T03:45:25;21.60;58.90
16271;DHT22;8243;49.048;8.396;2022-07-23T03:47:50;21.60;59.30
16271;DHT22;8243;49.048;8.396;2022-07-23T03:50:16;21.60;58.70
16271;DHT22;8243;49.048;8.396;2022-07-23T03:52:42;21.50;60.60
16271;DHT22;8243;49.048;8.396;2022-07-23T03:55:07;21.50;59.40
16271;DHT22;8243;49.048;8.396;2022-07-23T03:57:33;21.50;58.60
16271;DHT22;8243;49.048;8.396;2022-07-23T03:59:59;21.50;57.30
16271;DHT22;8243;49.048;8.396;2022-07-23T04:02:24;21.50;55.60
16271;DHT22;8243;49.048;8.396;2022-07-23T04:04:50;21.60;54.50
16271;DHT22;8243;49.048;8.396;2022-07-23T04:07:16;21.70;53.40
16271;DHT22;8243;49.048;8.396;2022-07-23T04:09:43;21.80;51.80
16271;DHT22;8243;49.048;8.396;2022-07-23T04:12:09;21.80;51.40
16271;DHT22;8243;49.048;8.396;2022-07-23T04:14:34;21.90;50.60
16271;DHT22;8243;49.048;8.396;2022-07-23T04:17:00;22.00;50.90
16271;DHT22;8243;49.048;8.396;2022-07-23T04:19:26;22.10;50.10
16271;DHT22;8243;49.048;8.396;2022-07-23T04:21:51;22.20;51.10
16271;DHT22;8243;49.048;8.396;2022-07-23T04:24:17;22.10;57.20
16271;DHT22;8243;49.048;8.396;2022-07-23T04:26:44;22.00;59.90
16271;DHT22;8243;49.048;8.396;2022-07-23T04:29:10;22.00;63.00
16271;DHT22;8243;49.048;8.396;2022-07-23T04:31:35;21.80;68.00
16271;DHT22;8243;49.048;8.396;2022-07-23T04:34:01;21.70;69.50
16271;DHT22;8243;49.048;8.396;2022-07-23T04:36:26;21.60;79.60
16271;DHT22;8243;49.048;8.396;2022-07-23T04:38:52;21.60;90.20
16271;DHT22;8243;49.048;8.396;2022-07-23T04:41:18;21.60;94.50
16271;DHT22;8243;49.048;8.396;2022-07-23T04:43:44;21.50;93.60
16271;DHT22;8243;49.048;8.396;2022-07-23T04:46:09;21.50;94.70
16271;DHT22;8243;49.048;8.396;2022-07-23T04:48:36;21.60;94.40
16271;DHT22;8243;49.048;8.396;2022-07-23T04:51:01;21.70;95.00
16271;DHT22;8243;49.048;8.396;2022-07-23T04:53:27;21.70;92.90
16271;DHT22;8243;49.048;8.396;2022-07-23T04:55:52;21.70;94.20
16271;DHT22;8243;49.048;8.396;2022-07-23T04:58:18;21.80;93.80
16271;DHT22;8243;49.048;8.396;2022-07-23T05:00:43;21.90;94.60
16271;DHT22;8243;49.048;8.396;2022-07-23T05:03:09;21.80;94.60
16271;DHT22;8243;49.048;8.396;2022-07-23T05:05:34;21.70;94.50
16271;DHT22;8243;49.048;8.396;2022-07-23T05:08:01;21.60;98.10
16271;DHT22;8243;49.048;8.396;2022-07-23T05:10:26;21.40;99.90
16271;DHT22;8243;49.048;8.396;2022-07-23T05:12:52;21.30;99.90
16271;DHT22;8243;49.048;8.396;2022-07-23T05:15:17;21.20;99.90
16271;DHT22;8243;49.048;8.396;2022-07-23T05:17:43;21.20;99.90
16271;DHT22;8243;49.048;8.396;2022-07-23T05:20:09;21.10;99.90
16271;DHT22;8243;49.048;8.396;2022-07-23T05:22:34;21.20;99.90
16271;DHT22;8243;49.048;8.396;2022-07-23T05:25:00;21.10;99.90
16271;DHT22;8243;49.048;8.396;2022-07-23T05:27:25;21.00;99.90
16271;DHT22;8243;49.048;8.396;2022-07-23T05:29:51;20.90;99.90
16271;DHT22;8243;49.048;8.396;2022-07-23T05:32:16;20.80;99.90
16271;DHT22;8243;49.048;8.396;2022-07-23T05:34:42;20.60;99.90
16271;DHT22;8243;49.048;8.396;2022-07-23T05:37:08;20.60;99.90
16271;DHT22;8243;49.048;8.396;2022-07-23T05:39:33;20.70;99.90
16271;DHT22;8243;49.048;8.396;2022-07-23T05:41:59;20.90;99.90
16271;DHT22;8243;49.048;8.396;2022-07-23T05:44:24;21.30;99.90
16271;DHT22;8243;49.048;8.396;2022-07-23T05:46:50;21.60;99.90
16271;DHT22;8243;49.048;8.396;2022-07-23T05:49:15;21.80;99.90
16271;DHT22;8243;49.048;8.396;2022-07-23T05:51:41;22.10;99.90
16271;DHT22;8243;49.048;8.396;2022-07-23T05:54:06;22.30;99.90
16271;DHT22;8243;49.048;8.396;2022-07-23T05:56:32;22.30;99.90
16271;DHT22;8243;49.048;8.396;2022-07-23T05:58:57;22.10;99.90
16271;DHT22;8243;49.048;8.396;2022-07-23T06:01:23;22.00;99.90
16271;DHT22;8243;49.048;8.396;2022-07-23T06:03:48;21.80;99.90
16271;DHT22;8243;49.048;8.396;2022-07-23T06:06:14;21.80;99.90
16271;DHT22;8243;49.048;8.396;2022-07-23T06:08:39;21.80;99.90
16271;DHT22;8243;49.048;8.396;2022-07-23T06:11:05;21.80;99.90
16271;DHT22;8243;49.048;8.396;2022-07-23T06:13:31;21.90;99.90
16271;DHT22;8243;49.048;8.396;2022-07-23T06:15:56;21.90;99.90
16271;DHT22;8243;49.048;8.396;2022-07-23T06:18:22;21.80;99.90
16271;DHT22;8243;49.048;8.396;2022-07-23T06:20:47;21.80;99.90
16271;DHT22;8243;49.048;8.396;2022-07-23T06:23:13;21.80;99.90
16271;DHT22;8243;49.048;8.396;2022-07-23T06:25:39;21.90;99.90
16271;DHT22;8243;49.048;8.396;2022-07-23T06:28:04;21.90;99.90
16271;DHT22;8243;49.048;8.396;2022-07-23T06:30:30;22.00;99.90
16271;DHT22;8243;49.048;8.396;2022-07-23T06:32:55;22.10;99.90
16271;DHT22;8243;49.048;8.396;2022-07-23T06:35:21;22.20;99.90
16271;DHT22;8243;49.048;8.396;2022-07-23T06:37:47;22.60;99.90
16271;DHT22;8243;49.048;8.396;2022-07-23T06:40:12;23.20;99.90
16271;DHT22;8243;49.048;8.396;2022-07-23T06:42:38;23.40;99.90
16271;DHT22;8243;49.048;8.396;2022-07-23T06:45:05;23.60;99.90
16271;DHT22;8243;49.048;8.396;2022-07-23T06:47:31;23.60;98.40
16271;DHT22;8243;49.048;8.396;2022-07-23T06:49:57;23.70;97.50
16271;DHT22;8243;49.048;8.396;2022-07-23T06:52:22;23.80;94.20
16271;DHT22;8243;49.048;8.396;2022-07-23T06:54:48;23.90;93.20
16271;DHT22;8243;49.048;8.396;2022-07-23T06:57:14;23.90;94.70
16271;DHT22;8243;49.048;8.396;2022-07-23T06:59:40;24.30;91.40
16271;DHT22;8243;49.048;8.396;2022-07-23T07:02:07;24.60;82.00
16271;DHT22;8243;49.048;8.396;2022-07-23T07:04:32;24.60;81.80
16271;DHT22;8243;49.048;8.396;2022-07-23T07:06:58;24.60;74.10
16271;DHT22;8243;49.048;8.396;2022-07-23T07:09:24;24.50;67.70
16271;DHT22;8243;49.048;8.396;2022-07-23T07:11:49;24.40;63.40
16271;DHT22;8243;49.048;8.396;2022-07-23T07:14:15;24.10;68.90
16271;DHT22;8243;49.048;8.396;2022-07-23T07:16:40;24.20;66.60
16271;DHT22;8243;49.048;8.396;2022-07-23T07:19:06;24.20;63.50
16271;DHT22;8243;49.048;8.396;2022-07-23T07:21:32;24.20;62.20
16271;DHT22;8243;49.048;8.396;2022-07-23T07:23:57;24.30;58.70
16271;DHT22;8243;49.048;8.396;2022-07-23T07:26:23;24.40;59.50
16271;DHT22;8243;49.048;8.396;2022-07-23T07:28:48;24.40;58.20
16271;DHT22;8243;49.048;8.396;2022-07-23T07:31:14;24.40;57.90
16271;DHT22;8243;49.048;8.396;2022-07-23T07:33:40;24.70;57.50
16271;DHT22;8243;49.048;8.396;2022-07-23T07:36:05;24.80;53.70
16271;DHT22;8243;49.048;8.396;2022-07-23T07:38:31;25.30;51.40
16271;DHT22;8243;49.048;8.396;2022-07-23T07:40:56;26.00;46.70
16271;DHT22;8243;49.048;8.396;2022-07-23T07:43:22;27.00;39.60
16271;DHT22;8243;49.048;8.396;2022-07-23T07:45:47;28.50;30.00
16271;DHT22;8243;49.048;8.396;2022-07-23T07:48:13;29.80;26.80
16271;DHT22;8243;49.048;8.396;2022-07-23T07:50:39;31.10;21.90
16271;DHT22;8243;49.048;8.396;2022-07-23T07:53:04;32.10;18.80
16271;DHT22;8243;49.048;8.396;2022-07-23T07:55:30;32.60;14.90
16271;DHT22;8243;49.048;8.396;2022-07-23T07:57:57;32.70;14.50
16271;DHT22;8243;49.048;8.396;2022-07-23T08:00:22;33.40;12.70
16271;DHT22;8243;49.048;8.396;2022-07-23T08:02:52;33.50;12.10
16271;DHT22;8243;49.048;8.396;2022-07-23T08:05:22;33.60;11.30
16271;DHT22;8243;49.048;8.396;2022-07-23T08:07:48;33.80;12.10
16271;DHT22;8243;49.048;8.396;2022-07-23T08:10:14;34.00;10.70
16271;DHT22;8243;49.048;8.396;2022-07-23T08:12:44;33.50;11.70
16271;DHT22;8243;49.048;8.396;2022-07-23T08:15:11;33.20;11.50
16271;DHT22;8243;49.048;8.396;2022-07-23T08:17:37;33.30;12.90
16271;DHT22;8243;49.048;8.396;2022-07-23T08:20:04;33.60;11.60
16271;DHT22;8243;49.048;8.396;2022-07-23T08:25:24;34.90;10.20
16271;DHT22;8243;49.048;8.396;2022-07-23T08:27:51;34.70;10.00
16271;DHT22;8243;49.048;8.396;2022-07-23T08:30:17;35.20;8.70
16271;DHT22;8243;49.048;8.396;2022-07-23T08:35:30;35.20;8.90
16271;DHT22;8243;49.048;8.396;2022-07-23T08:37:57;35.20;7.90
16271;DHT22;8243;49.048;8.396;2022-07-23T08:40:24;35.00;8.00
16271;DHT22;8243;49.048;8.396;2022-07-23T08:42:50;34.70;8.40
16271;DHT22;8243;49.048;8.396;2022-07-23T08:45:21;34.20;9.40
16271;DHT22;8243;49.048;8.396;2022-07-23T08:47:52;33.50;9.80
16271;DHT22;8243;49.048;8.396;2022-07-23T08:50:19;33.60;10.20
16271;DHT22;8243;49.048;8.396;2022-07-23T08:52:45;33.90;10.70
16271;DHT22;8243;49.048;8.396;2022-07-23T08:55:11;35.00;8.80
16271;DHT22;8243;49.048;8.396;2022-07-23T08:57:36;34.70;9.30
16271;DHT22;8243;49.048;8.396;2022-07-23T09:00:04;35.50;7.90
16271;DHT22;8243;49.048;8.396;2022-07-23T09:02:30;35.00;7.90
16271;DHT22;8243;49.048;8.396;2022-07-23T09:04:55;34.00;9.20
16271;DHT22;8243;49.048;8.396;2022-07-23T09:07:21;33.40;10.10
16271;DHT22;8243;49.048;8.396;2022-07-23T09:09:46;32.30;12.10
16271;DHT22;8243;49.048;8.396;2022-07-23T09:12:12;31.40;13.80
16271;DHT22;8243;49.048;8.396;2022-07-23T09:14:38;31.10;14.30
16271;DHT22;8243;49.048;8.396;2022-07-23T09:17:15;31.40;13.60
16271;DHT22;8243;49.048;8.396;2022-07-23T09:19:42;31.40;14.00
16271;DHT22;8243;49.048;8.396;2022-07-23T09:22:18;31.50;13.30
16271;DHT22;8243;49.048;8.396;2022-07-23T09:25:06;31.50;13.10
16271;DHT22;8243;49.048;8.396;2022-07-23T09:28:00;30.60;14.70
16271;DHT22;8243;49.048;8.396;2022-07-23T09:30:31;29.80;16.10
16271;DHT22;8243;49.048;8.396;2022-07-23T09:33:08;29.40;17.90
16271;DHT22;8243;49.048;8.396;2022-07-23T09:38:09;30.00;14.70
16271;DHT22;8243;49.048;8.396;2022-07-23T09:40:34;30.80;14.90
16271;DHT22;8243;49.048;8.396;2022-07-23T09:43:00;31.60;15.30
16271;DHT22;8243;49.048;8.396;2022-07-23T09:45:25;32.10;13.90
16271;DHT22;8243;49.048;8.396;2022-07-23T09:47:51;32.20;13.40
16271;DHT22;8243;49.048;8.396;2022-07-23T09:50:34;32.50;12.70
16271;DHT22;8243;49.048;8.396;2022-07-23T09:53:00;32.00;14.50
16271;DHT22;8243;49.048;8.396;2022-07-23T09:55:34;32.10;13.10
16271;DHT22;8243;49.048;8.396;2022-07-23T09:58:05;32.70;12.80
16271;DHT22;8243;49.048;8.396;2022-07-23T10:00:33;33.80;11.70
16271;DHT22;8243;49.048;8.396;2022-07-23T10:02:59;34.20;10.60
16271;DHT22;8243;49.048;8.396;2022-07-23T10:05:25;34.20;9.00
16271;DHT22;8243;49.048;8.396;2022-07-23T10:07:52;33.10;10.20
16271;DHT22;8243;49.048;8.396;2022-07-23T10:10:18;32.30;12.90
16271;DHT22;8243;49.048;8.396;2022-07-23T10:12:46;31.70;15.00
16271;DHT22;8243;49.048;8.396;2022-07-23T10:15:44;31.60;15.30
16271;DHT22;8243;49.048;8.396;2022-07-23T10:18:11;31.30;13.40
16271;DHT22;8243;49.048;8.396;2022-07-23T10:20:38;30.80;13.90
16271;DHT22;8243;49.048;8.396;2022-07-23T10:23:24;29.90;15.40
16271;DHT22;8243;49.048;8.396;2022-07-23T10:26:09;29.10;18.40
16271;DHT22;8243;49.048;8.396;2022-07-23T10:31:31;28.90;19.50
16271;DHT22;8243;49.048;8.396;2022-07-23T10:36:44;28.60;20.60
16271;DHT22;8243;49.048;8.396;2022-07-23T10:41:51;30.20;18.50
16271;DHT22;8243;49.048;8.396;2022-07-23T10:44:19;31.50;15.30
16271;DHT22;8243;49.048;8.396;2022-07-23T10:46:59;32.00;13.70
16271;DHT22;8243;49.048;8.396;2022-07-23T10:49:44;31.90;13.50
16271;DHT22;8243;49.048;8.396;2022-07-23T10:52:17;31.80;13.00
16271;DHT22;8243;49.048;8.396;2022-07-23T10:54:45;31.70;13.70
16271;DHT22;8243;49.048;8.396;2022-07-23T10:57:12;32.00;12.50
16271;DHT22;8243;49.048;8.396;2022-07-23T11:02:36;31.60;12.40
16271;DHT22;8243;49.048;8.396;2022-07-23T11:05:07;30.50;14.90
16271;DHT22;8243;49.048;8.396;2022-07-23T11:07:34;29.50;17.10
16271;DHT22;8243;49.048;8.396;2022-07-23T11:10:00;29.70;17.80
16271;DHT22;8243;49.048;8.396;2022-07-23T11:17:23;31.10;13.40
16271;DHT22;8243;49.048;8.396;2022-07-23T11:22:55;30.50;15.40
16271;DHT22;8243;49.048;8.396;2022-07-23T11:27:47;31.40;14.70
16271;DHT22;8243;49.048;8.396;2022-07-23T11:33:17;31.30;13.70
16271;DHT22;8243;49.048;8.396;2022-07-23T11:35:42;30.40;14.50
16271;DHT22;8243;49.048;8.396;2022-07-23T11:38:15;30.30;15.40
16271;DHT22;8243;49.048;8.396;2022-07-23T11:40:43;30.40;15.20
16271;DHT22;8243;49.048;8.396;2022-07-23T11:43:11;30.40;15.40
16271;DHT22;8243;49.048;8.396;2022-07-23T11:45:41;29.70;16.00
16271;DHT22;8243;49.048;8.396;2022-07-23T11:48:22;29.60;16.40
16271;DHT22;8243;49.048;8.396;2022-07-23T11:50:49;30.00;16.70
16271;DHT22;8243;49.048;8.396;2022-07-23T11:53:22;30.00;15.30
16271;DHT22;8243;49.048;8.396;2022-07-23T11:55:48;30.50;15.30
16271;DHT22;8243;49.048;8.396;2022-07-23T11:58:13;31.30;14.00
16271;DHT22;8243;49.048;8.396;2022-07-23T12:00:41;31.80;12.80
16271;DHT22;8243;49.048;8.396;2022-07-23T12:03:07;32.20;11.40
16271;DHT22;8243;49.048;8.396;2022-07-23T12:05:35;32.10;11.80
16271;DHT22;8243;49.048;8.396;2022-07-23T12:08:03;32.00;12.30
16271;DHT22;8243;49.048;8.396;2022-07-23T12:13:13;31.60;12.30
16271;DHT22;8243;49.048;8.396;2022-07-23T12:15:42;31.50;12.80
16271;DHT22;8243;49.048;8.396;2022-07-23T12:18:11;31.80;11.70
16271;DHT22;8243;49.048;8.396;2022-07-23T12:20:40;31.60;13.00
16271;DHT22;8243;49.048;8.396;2022-07-23T12:23:08;31.00;14.40
16271;DHT22;8243;49.048;8.396;2022-07-23T12:25:36;31.00;14.90
16271;DHT22;8243;49.048;8.396;2022-07-23T12:28:08;31.00;14.40
16271;DHT22;8243;49.048;8.396;2022-07-23T12:30:45;30.60;14.50
16271;DHT22;8243;49.048;8.396;2022-07-23T12:33:14;30.20;15.50
16271;DHT22;8243;49.048;8.396;2022-07-23T12:35:45;29.80;16.20
16271;DHT22;8243;49.048;8.396;2022-07-23T12:38:13;29.60;16.40
16271;DHT22;8243;49.048;8.396;2022-07-23T12:43:22;30.20;15.30
16271;DHT22;8243;49.048;8.396;2022-07-23T12:46:03;30.10;16.30
16271;DHT22;8243;49.048;8.396;2022-07-23T12:51:24;31.20;14.50
16271;DHT22;8243;49.048;8.396;2022-07-23T12:53:58;31.80;13.60
16271;DHT22;8243;49.048;8.396;2022-07-23T12:56:33;31.90;12.40
16271;DHT22;8243;49.048;8.396;2022-07-23T12:59:07;31.20;13.30
16271;DHT22;8243;49.048;8.396;2022-07-23T13:01:36;30.40;14.00
16271;DHT22;8243;49.048;8.396;2022-07-23T13:04:07;30.40;14.50
16271;DHT22;8243;49.048;8.396;2022-07-23T13:06:38;30.80;14.80
16271;DHT22;8243;49.048;8.396;2022-07-23T13:09:06;31.50;13.80
16271;DHT22;8243;49.048;8.396;2022-07-23T13:11:32;31.90;12.70
16271;DHT22;8243;49.048;8.396;2022-07-23T13:13:58;31.80;12.90
16271;DHT22;8243;49.048;8.396;2022-07-23T13:16:29;31.90;11.70
16271;DHT22;8243;49.048;8.396;2022-07-23T13:18:55;31.20;11.90
16271;DHT22;8243;49.048;8.396;2022-07-23T13:21:24;31.60;10.80
16271;DHT22;8243;49.048;8.396;2022-07-23T13:23:50;32.00;10.60
16271;DHT22;8243;49.048;8.396;2022-07-23T13:26:16;31.90;10.80
16271;DHT22;8243;49.048;8.396;2022-07-23T13:28:42;32.20;10.40
16271;DHT22;8243;49.048;8.396;2022-07-23T13:31:08;32.50;10.50
16271;DHT22;8243;49.048;8.396;2022-07-23T13:33:34;32.70;10.50
16271;DHT22;8243;49.048;8.396;2022-07-23T13:35:59;33.20;9.60
16271;DHT22;8243;49.048;8.396;2022-07-23T13:38:25;33.30;9.00
16271;DHT22;8243;49.048;8.396;2022-07-23T13:40:52;33.50;9.00
16271;DHT22;8243;49.048;8.396;2022-07-23T13:43:20;33.30;9.00
16271;DHT22;8243;49.048;8.396;2022-07-23T13:45:46;33.00;9.40
16271;DHT22;8243;49.048;8.396;2022-07-23T13:48:13;32.80;9.50
16271;DHT22;8243;49.048;8.396;2022-07-23T13:50:40;32.80;9.40
16271;DHT22;8243;49.048;8.396;2022-07-23T13:53:07;32.60;9.40
16271;DHT22;8243;49.048;8.396;2022-07-23T13:55:34;32.70;9.30
16271;DHT22;8243;49.048;8.396;2022-07-23T13:58:00;33.00;8.70
16271;DHT22;8243;49.048;8.396;2022-07-23T14:00:27;33.00;9.40
16271;DHT22;8243;49.048;8.396;2022-07-23T14:02:53;33.40;8.10
16271;DHT22;8243;49.048;8.396;2022-07-23T14:05:19;33.20;8.30
16271;DHT22;8243;49.048;8.396;2022-07-23T14:07:44;32.90;8.80
16271;DHT22;8243;49.048;8.396;2022-07-23T14:10:12;32.90;8.50
16271;DHT22;8243;49.048;8.396;2022-07-23T14:12:38;32.60;8.90
16271;DHT22;8243;49.048;8.396;2022-07-23T14:15:05;32.80;8.70
16271;DHT22;8243;49.048;8.396;2022-07-23T14:17:31;32.90;8.30
16271;DHT22;8243;49.048;8.396;2022-07-23T14:19:58;32.90;8.50
16271;DHT22;8243;49.048;8.396;2022-07-23T14:22:24;33.30;8.50
16271;DHT22;8243;49.048;8.396;2022-07-23T14:24:50;33.40;7.90
16271;DHT22;8243;49.048;8.396;2022-07-23T14:27:15;33.30;8.40
16271;DHT22;8243;49.048;8.396;2022-07-23T14:29:41;33.20;7.90
16271;DHT22;8243;49.048;8.396;2022-07-23T14:32:07;32.90;8.90
16271;DHT22;8243;49.048;8.396;2022-07-23T14:34:33;33.00;8.50
16271;DHT22;8243;49.048;8.396;2022-07-23T14:36:59;32.60;8.90
16271;DHT22;8243;49.048;8.396;2022-07-23T14:39:25;32.20;9.40
16271;DHT22;8243;49.048;8.396;2022-07-23T14:41:50;32.00;10.00
16271;DHT22;8243;49.048;8.396;2022-07-23T14:44:16;31.70;10.30
16271;DHT22;8243;49.048;8.396;2022-07-23T14:46:41;31.30;10.70
16271;DHT22;8243;49.048;8.396;2022-07-23T14:49:07;31.20;11.20
16271;DHT22;8243;49.048;8.396;2022-07-23T14:51:32;31.10;11.60
16271;DHT22;8243;49.048;8.396;2022-07-23T14:53:58;31.10;11.40
16271;DHT22;8243;49.048;8.396;2022-07-23T14:56:24;31.30;11.60
16271;DHT22;8243;49.048;8.396;2022-07-23T14:58:49;31.80;11.50
16271;DHT22;8243;49.048;8.396;2022-07-23T15:01:15;31.90;10.80
16271;DHT22;8243;49.048;8.396;2022-07-23T15:03:41;31.80;10.70
16271;DHT22;8243;49.048;8.396;2022-07-23T15:06:06;32.00;10.60
16271;DHT22;8243;49.048;8.396;2022-07-23T15:08:32;32.00;9.90
16271;DHT22;8243;49.048;8.396;2022-07-23T15:11:00;32.00;9.10
16271;DHT22;8243;49.048;8.396;2022-07-23T15:13:26;32.20;9.50
16271;DHT22;8243;49.048;8.396;2022-07-23T15:15:51;32.30;8.90
16271;DHT22;8243;49.048;8.396;2022-07-23T15:18:17;32.20;8.70
16271;DHT22;8243;49.048;8.396;2022-07-23T15:20:42;32.40;9.00
16271;DHT22;8243;49.048;8.396;2022-07-23T15:23:08;32.50;8.30
16271;DHT22;8243;49.048;8.396;2022-07-23T15:25:34;32.10;11.10
16271;DHT22;8243;49.048;8.396;2022-07-23T15:28:00;31.50;12.70
16271;DHT22;8243;49.048;8.396;2022-07-23T15:30:27;30.40;13.40
16271;DHT22;8243;49.048;8.396;2022-07-23T15:32:53;29.80;14.70
16271;DHT22;8243;49.048;8.396;2022-07-23T15:35:19;29.70;15.70
16271;DHT22;8243;49.048;8.396;2022-07-23T15:37:45;29.60;15.40
16271;DHT22;8243;49.048;8.396;2022-07-23T15:40:11;30.00;15.50
16271;DHT22;8243;49.048;8.396;2022-07-23T15:42:37;30.00;14.80
16271;DHT22;8243;49.048;8.396;2022-07-23T15:45:04;29.50;15.30
16271;DHT22;8243;49.048;8.396;2022-07-23T15:47:30;29.30;16.50
16271;DHT22;8243;49.048;8.396;2022-07-23T15:49:55;29.30;16.10
16271;DHT22;8243;49.048;8.396;2022-07-23T15:52:21;29.40;16.00
16271;DHT22;8243;49.048;8.396;2022-07-23T15:54:46;29.50;16.30
16271;DHT22;8243;49.048;8.396;2022-07-23T15:57:12;29.70;16.50
16271;DHT22;8243;49.048;8.396;2022-07-23T15:59:38;29.90;16.10
16271;DHT22;8243;49.048;8.396;2022-07-23T16:02:04;30.10;15.70
16271;DHT22;8243;49.048;8.396;2022-07-23T16:04:30;30.10;15.60
16271;DHT22;8243;49.048;8.396;2022-07-23T16:06:56;30.30;15.40
16271;DHT22;8243;49.048;8.396;2022-07-23T16:09:22;30.30;14.80
16271;DHT22;8243;49.048;8.396;2022-07-23T16:11:48;30.20;14.80
16271;DHT22;8243;49.048;8.396;2022-07-23T16:14:13;29.90;14.80
16271;DHT22;8243;49.048;8.396;2022-07-23T16:16:40;29.70;15.00
16271;DHT22;8243;49.048;8.396;2022-07-23T16:19:06;29.60;15.10
16271;DHT22;8243;49.048;8.396;2022-07-23T16:21:32;29.40;15.60
16271;DHT22;8243;49.048;8.396;2022-07-23T16:23:57;29.40;15.90
16271;DHT22;8243;49.048;8.396;2022-07-23T16:26:23;29.60;15.10
16271;DHT22;8243;49.048;8.396;2022-07-23T16:28:48;29.70;15.00